Time;durP1;ratioP1;P1;durP2;ratioP2;P2;SDS_P1;SDS_P2;PMS_P1;PMS_P2;Temp;Humidity;BMP_temperature;BMP_pressure;BME280_temperature;BME280_humidity;BME280_pressure;Samples;Min_cycle;Max_cycle;Signal;HPM_P1;HPM_P2
2022/03/22 00:00:19;;;;;;;;;;;;;;;3.96;59.41;101824.88;4422576;32;19974;-90
2022/03/22 00:02:44;;;;;;;;;;;;;;;3.74;59.40;101818.25;4422570;32;20068;-88
2022/03/22 00:05:09;;;;;;;;;;;;;;;3.88;59.41;101822.09;4422471;32;20012;-90
2022/03/22 00:07:34;;;;;;;;;;;;;;;3.86;59.41;101822.91;4422416;32;20065;-90
2022/03/22 00:10:00;;;;;;;;;;;;;;;4.00;59.41;101822.44;4422434;32;20045;-90
2022/03/22 00:12:26;;;;;;;;;;;;;;;3.97;59.42;101827.50;4421910;32;24012;-90
2022/03/22 00:14:51;;;;;;;;;;;;;;;3.83;59.41;101822.81;4422309;32;20013;-90
2022/03/22 00:17:16;;;;;;;;;;;;;;;3.83;59.41;101831.41;4422303;32;19990;-90
2022/03/22 00:19:41;;;;;;;;;;;;;;;3.58;59.38;101823.81;4422684;32;20001;-91
2022/03/22 00:22:07;;;;;;;;;;;;;;;3.54;59.39;101820.25;4422455;32;19970;-91
2022/03/22 00:24:32;;;;;;;;;;;;;;;3.72;59.40;101822.47;4422323;32;19998;-90
2022/03/22 00:26:57;;;;;;;;;;;;;;;3.59;59.39;101820.41;4422753;32;20033;-91
2022/03/22 00:29:22;;;;;;;;;;;;;;;3.48;59.38;101827.78;4421639;32;20446;-89
2022/03/22 00:31:47;;;;;;;;;;;;;;;3.53;59.38;101822.78;4421949;32;19981;-89
2022/03/22 00:34:13;;;;;;;;;;;;;;;3.53;59.38;101822.78;4421668;32;19982;-89
2022/03/22 00:36:41;;;;;;;;;;;;;;;3.36;59.37;101833.47;4422191;32;19992;-88
2022/03/22 00:39:06;;;;;;;;;;;;;;;3.45;59.37;101832.84;4422208;32;20031;-89
2022/03/22 00:41:31;;;;;;;;;;;;;;;3.52;59.38;101821.03;4423071;32;19990;-91
2022/03/22 00:43:57;;;;;;;;;;;;;;;3.52;59.38;101821.03;4422825;32;20014;-91
2022/03/22 00:46:22;;;;;;;;;;;;;;;3.33;59.38;101822.19;4423392;32;19994;-91
2022/03/22 00:48:48;;;;;;;;;;;;;;;3.50;59.38;101822.69;4422943;32;20032;-91
2022/03/22 00:51:14;;;;;;;;;;;;;;;3.49;59.38;101820.94;4422430;32;19966;-90
2022/03/22 00:53:39;;;;;;;;;;;;;;;3.52;59.38;101818.44;4409808;32;20028;-90
2022/03/22 00:56:04;;;;;;;;;;;;;;;3.48;59.38;101817.50;4422414;32;20017;-92
2022/03/22 00:58:30;;;;;;;;;;;;;;;3.43;59.38;101821.62;4423404;32;20004;-92
2022/03/22 01:00:56;;;;;;;;;;;;;;;3.46;59.38;101826.00;4423924;32;20329;-92
2022/03/22 01:03:21;;;;;;;;;;;;;;;3.37;59.37;101827.47;4423860;32;19990;-92
2022/03/22 01:05:50;;;;;;;;;;;;;;;3.39;59.38;101818.09;4423837;32;20386;-93
2022/03/22 01:08:16;;;;;;;;;;;;;;;3.30;59.37;101812.66;4424348;32;19996;-94
2022/03/22 01:10:41;;;;;;;;;;;;;;;3.00;59.35;101817.72;4424352;32;20001;-93
2022/03/22 01:13:08;;;;;;;;;;;;;;;2.92;59.35;101823.47;4424184;32;20021;-93
2022/03/22 01:15:34;;;;;;;;;;;;;;;2.85;59.34;101813.81;4424362;32;20049;-93
2022/03/22 01:18:03;;;;;;;;;;;;;;;2.97;59.36;101814.19;4423920;32;19974;-94
2022/03/22 01:20:31;;;;;;;;;;;;;;;3.07;59.36;101813.63;4422715;32;20376;-90
2022/03/22 01:22:56;;;;;;;;;;;;;;;3.05;59.36;101812.72;4421987;32;20009;-90
2022/03/22 01:25:23;;;;;;;;;;;;;;;3.10;59.36;101811.19;4422116;32;19993;-91
2022/03/22 01:27:49;;;;;;;;;;;;;;;3.02;59.36;101808.34;4421943;32;20042;-91
2022/03/22 01:30:15;;;;;;;;;;;;;;;3.20;59.37;101802.91;4421212;32;19970;-91
2022/03/22 01:32:40;;;;;;;;;;;;;;;3.10;59.36;101806.06;4424934;32;20004;-89
2022/03/22 01:35:06;;;;;;;;;;;;;;;3.14;59.36;101807.00;4424849;32;20053;-91
2022/03/22 01:37:31;;;;;;;;;;;;;;;2.95;59.36;101808.12;4424889;32;19985;-92
2022/03/22 01:39:57;;;;;;;;;;;;;;;2.81;59.34;101811.94;4425606;32;20027;-92
2022/03/22 01:42:22;;;;;;;;;;;;;;;2.81;59.34;101807.66;4425320;32;20008;-92
2022/03/22 01:44:48;;;;;;;;;;;;;;;2.75;59.34;101808.34;4424552;32;20599;-92
2022/03/22 01:47:14;;;;;;;;;;;;;;;2.78;59.34;101805.00;4426599;32;20263;-90
2022/03/22 01:49:41;;;;;;;;;;;;;;;2.64;59.33;101806.28;4426361;32;20326;-90
2022/03/22 01:52:07;;;;;;;;;;;;;;;2.78;59.34;101803.31;4426577;32;19993;-90
2022/03/22 01:54:33;;;;;;;;;;;;;;;2.81;59.35;101799.09;4426455;32;20021;-91
2022/03/22 01:56:58;;;;;;;;;;;;;;;2.85;59.35;101799.25;4426287;32;21959;-91
2022/03/22 01:59:23;;;;;;;;;;;;;;;2.74;59.34;101803.16;4439293;32;20013;-91
2022/03/22 02:07:17;;;;;;;;;;;;;;;2.87;59.36;101792.47;4428325;32;20678;-90
2022/03/22 02:09:42;;;;;;;;;;;;;;;2.83;59.35;101795.72;4438751;32;19985;-90
2022/03/22 02:12:07;;;;;;;;;;;;;;;2.97;59.35;101791.91;4438677;32;20310;-89
2022/03/22 02:14:33;;;;;;;;;;;;;;;2.98;59.35;101788.50;4425966;32;20005;-89
2022/03/22 02:16:58;;;;;;;;;;;;;;;2.58;59.34;101796.63;4439990;32;19988;-90
2022/03/22 02:19:25;;;;;;;;;;;;;;;2.91;59.34;101786.59;4440131;32;19981;-90
2022/03/22 02:21:51;;;;;;;;;;;;;;;2.93;59.35;101781.47;4438853;32;21854;-90
2022/03/22 02:24:16;;;;;;;;;;;;;;;3.00;59.35;101783.41;4426320;32;20041;-91
2022/03/22 02:26:41;;;;;;;;;;;;;;;2.85;59.34;101785.53;4438726;32;19981;-89
2022/03/22 02:29:07;;;;;;;;;;;;;;;2.93;59.35;101781.47;4425686;32;20008;-89
2022/03/22 02:31:32;;;;;;;;;;;;;;;2.90;59.35;101784.84;4412882;32;20000;-89
2022/03/22 02:33:58;;;;;;;;;;;;;;;2.97;59.36;101788.47;4438424;32;20012;-89
2022/03/22 02:36:23;;;;;;;;;;;;;;;2.97;59.36;101783.31;4425744;32;20346;-90
2022/03/22 02:38:48;;;;;;;;;;;;;;;3.04;59.36;101785.25;4438358;32;20025;-89
2022/03/22 02:41:14;;;;;;;;;;;;;;;2.87;59.34;101783.88;4438339;32;19989;-90
2022/03/22 02:43:40;;;;;;;;;;;;;;;2.99;59.35;101782.53;4438413;32;20346;-89
2022/03/22 02:46:05;;;;;;;;;;;;;;;2.99;59.35;101777.41;4439869;32;20045;-89
2022/03/22 02:48:30;;;;;;;;;;;;;;;2.81;59.35;101786.22;4438246;32;20273;-89
2022/03/22 02:50:56;;;;;;;;;;;;;;;2.64;59.33;101786.56;4438226;32;19997;-89
2022/03/22 02:53:21;;;;;;;;;;;;;;;2.56;59.32;101793.13;4438421;32;20100;-90
2022/03/22 02:55:46;;;;;;;;;;;;;;;2.53;59.33;101787.91;4425563;32;19984;-90
2022/03/22 02:58:11;;;;;;;;;;;;;;;2.25;59.32;101792.94;4421175;32;20342;-90
2022/03/22 03:00:37;;;;;;;;;;;;;;;2.01;59.29;101796.41;4397201;32;24493;-90
2022/03/22 03:03:03;;;;;;;;;;;;;;;2.23;59.31;101789.44;4410479;32;20010;-89
2022/03/22 03:05:28;;;;;;;;;;;;;;;2.13;59.30;101785.69;4410243;32;19982;-90
2022/03/22 03:07:53;;;;;;;;;;;;;;;2.02;59.29;101804.97;4409965;32;24322;-90
2022/03/22 03:10:19;;;;;;;;;;;;;;;2.35;59.31;101795.00;4410009;32;20088;-88
2022/03/22 03:12:44;;;;;;;;;;;;;;;1.99;59.30;101798.03;4410049;32;20009;-89
2022/03/22 03:15:09;;;;;;;;;;;;;;;1.87;59.28;101802.72;4409991;32;19974;-88
2022/03/22 03:17:35;;;;;;;;;;;;;;;1.80;59.28;101806.78;4423951;32;20020;-91
2022/03/22 03:20:00;;;;;;;;;;;;;;;1.85;59.29;101801.78;4398288;32;19989;-91
2022/03/22 03:22:26;;;;;;;;;;;;;;;1.92;59.30;101802.91;4397895;32;20032;-91
2022/03/22 03:24:51;;;;;;;;;;;;;;;1.82;59.28;101809.41;4411105;32;19973;-91
2022/03/22 03:27:16;;;;;;;;;;;;;;;1.88;59.28;101817.31;4411431;32;20246;-92
2022/03/22 03:29:41;;;;;;;;;;;;;;;2.01;59.30;101809.25;4411675;32;20005;-92
2022/03/22 03:32:07;;;;;;;;;;;;;;;1.92;59.29;101810.63;4411542;32;20298;-92
2022/03/22 03:34:32;;;;;;;;;;;;;;;1.77;59.28;101816.06;4411397;32;20016;-92
2022/03/22 03:36:58;;;;;;;;;;;;;;;1.85;59.29;101805.25;4411669;32;20020;-92
2022/03/22 03:39:23;;;;;;;;;;;;;;;1.60;59.27;101809.41;4411500;32;19998;-92
2022/03/22 03:41:56;;;;;;;;;;;;;;;1.48;59.27;101804.72;4411753;32;19994;-92
2022/03/22 03:47:10;;;;;;;;;;;;;;;1.85;59.29;101801.78;4413548;32;20005;-92
2022/03/22 03:49:39;;;;;;;;;;;;;;;1.76;59.27;101804.91;4411588;32;19998;-92
2022/03/22 03:52:14;;;;;;;;;;;;;;;1.78;59.28;101802.41;4398415;32;19993;-93
2022/03/22 03:54:39;;;;;;;;;;;;;;;1.69;59.27;101804.66;4410281;32;20042;-90
2022/03/22 03:57:05;;;;;;;;;;;;;;;1.81;59.28;101805.06;4409867;32;20029;-89
2022/03/22 03:59:30;;;;;;;;;;;;;;;1.78;59.28;101808.41;4424318;32;20009;-90
2022/03/22 04:01:55;;;;;;;;;;;;;;;1.77;59.29;101808.34;4424423;32;26711;-89
2022/03/22 04:04:20;;;;;;;;;;;;;;;1.66;59.28;101804.53;4425085;32;20030;-89
2022/03/22 04:06:47;;;;;;;;;;;;;;;1.66;59.27;101807.97;4424994;32;20049;-89
2022/03/22 04:09:13;;;;;;;;;;;;;;;1.59;59.27;101813.69;4424513;32;20003;-89
2022/03/22 04:11:38;;;;;;;;;;;;;;;1.54;59.26;101817.78;4425071;32;19989;-89
2022/03/22 04:14:03;;;;;;;;;;;;;;;1.39;59.25;101819.75;4424961;32;19981;-88
2022/03/22 04:16:29;;;;;;;;;;;;;;;1.49;59.27;101821.88;4424984;32;20246;-90
2022/03/22 04:18:54;;;;;;;;;;;;;;;1.42;59.26;101825.00;4425112;32;20004;-89
2022/03/22 04:21:19;;;;;;;;;;;;;;;1.51;59.26;101818.53;4425071;32;20004;-89
2022/03/22 04:23:45;;;;;;;;;;;;;;;1.46;59.26;101827.75;4424994;32;20062;-89
2022/03/22 04:26:10;;;;;;;;;;;;;;;1.39;59.25;101827.44;4424961;32;20337;-89
2022/03/22 04:34:03;;;;;;;;;;;;;;;1.66;59.27;101831.09;4427959;32;20000;-92
2022/03/22 04:36:29;;;;;;;;;;;;;;;1.49;59.27;101839.84;4426043;32;19982;-91
2022/03/22 04:38:54;;;;;;;;;;;;;;;1.69;59.27;101843.16;4426131;32;20020;-91
2022/03/22 04:41:19;;;;;;;;;;;;;;;1.71;59.28;101829.56;4425622;32;20028;-92
2022/03/22 04:43:45;;;;;;;;;;;;;;;1.57;59.27;101843.56;4412194;32;28846;-91
2022/03/22 04:46:10;;;;;;;;;;;;;;;1.61;59.27;101845.41;4425725;32;19981;-91
2022/03/22 04:48:36;;;;;;;;;;;;;;;1.50;59.26;101849.28;4425520;32;19998;-92
2022/03/22 04:56:46;;;;;;;;;;;;;;;1.48;59.27;101851.78;4428303;32;20035;-91
2022/03/22 04:59:12;;;;;;;;;;;;;;;1.41;59.26;101848.91;4422441;32;20040;-90
2022/03/22 05:01:37;;;;;;;;;;;;;;;1.41;59.26;101849.78;4409101;32;20009;-89
2022/03/22 05:04:02;;;;;;;;;;;;;;;1.45;59.26;101845.66;4409150;32;20359;-88
2022/03/22 05:06:35;;;;;;;;;;;;;;;1.44;59.26;101849.06;4408637;32;20031;-87
2022/03/22 05:09:01;;;;;;;;;;;;;;;1.40;59.26;101845.47;4423057;32;19978;-87
2022/03/22 05:11:26;;;;;;;;;;;;;;;1.40;59.25;101844.59;4408882;32;20367;-90
2022/03/22 05:13:54;;;;;;;;;;;;;;;1.51;59.27;101854.47;4408861;32;25284;-89
2022/03/22 05:16:19;;;;;;;;;;;;;;;1.13;59.24;101857.22;4409154;32;19985;-88
2022/03/22 05:18:44;;;;;;;;;;;;;;;1.48;59.27;101858.62;4408941;32;20028;-88
2022/03/22 05:21:09;;;;;;;;;;;;;;;1.80;59.29;101850.44;4409965;32;19985;-93
2022/03/22 05:23:34;;;;;;;;;;;;;;;1.78;59.28;101848.62;4409346;32;20024;-89
2022/03/22 05:26:00;;;;;;;;;;;;;;;1.76;59.27;101853.69;4408737;32;19996;-89
2022/03/22 05:28:25;;;;;;;;;;;;;;;1.91;59.28;101848.28;4423809;32;20060;-92
2022/03/22 05:30:50;;;;;;;;;;;;;;;1.76;59.27;101842.56;4409911;32;23141;-91
2022/03/22 05:33:16;;;;;;;;;;;;;;;1.97;59.29;101845.91;4409972;32;19998;-92
2022/03/22 05:35:41;;;;;;;;;;;;;;;2.23;59.31;101839.12;4409826;32;19982;-92
2022/03/22 05:38:06;;;;;;;;;;;;;;;2.23;59.31;101845.97;4409591;32;21653;-92
2022/03/22 05:40:31;;;;;;;;;;;;;;;2.27;59.30;101845.25;4410204;32;20298;-92
2022/03/22 05:42:57;;;;;;;;;;;;;;;2.64;59.33;101845.72;4410132;32;19989;-92
2022/03/22 05:45:23;;;;;;;;;;;;;;;2.72;59.34;101844.25;4410581;32;19981;-92
2022/03/22 05:47:49;;;;;;;;;;;;;;;2.86;59.34;101842.16;4410419;32;20046;-92
2022/03/22 05:50:14;;;;;;;;;;;;;;;2.80;59.34;101841.94;4410007;32;20331;-92
2022/03/22 05:52:43;;;;;;;;;;;;;;;2.95;59.35;101844.13;4409988;32;20029;-92
2022/03/22 05:55:08;;;;;;;;;;;;;;;3.21;59.36;101843.25;4422610;32;20394;-92
2022/03/22 05:57:33;;;;;;;;;;;;;;;3.63;59.39;101843.72;4412080;32;20032;-91
2022/03/22 05:59:59;;;;;;;;;;;;;;;3.49;59.38;101851.84;4426734;32;20002;-91
2022/03/22 06:02:24;;;;;;;;;;;;;;;3.72;59.40;101848.25;4410222;32;22477;-91
2022/03/22 06:04:49;;;;;;;;;;;;;;;4.04;59.41;101843.16;4430243;32;20008;-90
2022/03/22 06:07:14;;;;;;;;;;;;;;;4.17;59.42;101853.84;4404720;32;20013;-88
2022/03/22 06:09:41;;;;;;;;;;;;;;;4.45;59.44;101846.84;4419894;32;19989;-90
2022/03/22 06:12:06;;;;;;;;;;;;;;;4.63;59.44;101848.19;4419856;32;19982;-89
2022/03/22 06:14:32;;;;;;;;;;;;;;;4.94;59.46;101848.97;4419794;32;20008;-88
2022/03/22 06:16:57;;;;;;;;;;;;;;;5.07;59.47;101847.56;4419919;32;19973;-91
2022/03/22 06:19:22;;;;;;;;;;;;;;;5.34;59.49;101850.78;4418346;32;19998;-88
2022/03/22 06:21:48;;;;;;;;;;;;;;;5.60;59.50;101845.31;4419069;32;20260;-89
2022/03/22 06:24:13;;;;;;;;;;;;;;;5.59;59.50;101844.44;4419265;32;19966;-90
2022/03/22 06:26:38;;;;;;;;;;;;;;;5.93;59.52;101846.09;4406587;32;20009;-89
2022/03/22 06:29:03;;;;;;;;;;;;;;;6.03;59.53;101847.13;4406462;32;19993;-90
2022/03/22 06:31:35;;;;;;;;;;;;;;;6.27;59.54;101846.75;4407110;32;20005;-90
2022/03/22 06:34:01;;;;;;;;;;;;;;;6.43;59.55;101841.03;4408961;32;20068;-88
2022/03/22 06:36:27;;;;;;;;;;;;;;;6.69;59.56;101841.47;4421627;32;20058;-88
2022/03/22 06:38:52;;;;;;;;;;;;;;;6.94;59.57;101842.75;4422921;32;19998;-87
2022/03/22 06:41:17;;;;;;;;;;;;;;;7.29;59.60;101848.47;4408769;32;19997;-87
2022/03/22 06:43:43;;;;;;;;;;;;;;;7.44;59.61;101833.16;4409072;32;19993;-87
2022/03/22 06:46:08;;;;;;;;;;;;;;;7.67;59.62;101847.31;4423545;32;20728;-87
2022/03/22 06:48:33;;;;;;;;;;;;;;;7.86;59.63;101839.78;4423984;32;19974;-87
2022/03/22 06:50:58;;;;;;;;;;;;;;;8.12;59.65;101840.09;4422456;32;20331;-88
2022/03/22 06:53:23;;;;;;;;;;;;;;;8.43;59.66;101841.31;4423148;32;27380;-88
2022/03/22 06:55:51;;;;;;;;;;;;;;;8.64;59.68;101836.31;4409597;32;19998;-88
2022/03/22 06:58:21;;;;;;;;;;;;;;;8.78;59.68;101837.34;4409692;32;20077;-88
2022/03/22 07:00:46;;;;;;;;;;;;;;;9.12;59.71;101835.00;4409918;32;19977;-88
2022/03/22 07:03:11;;;;;;;;;;;;;;;9.48;59.72;101831.78;4409733;32;20054;-88
2022/03/22 07:05:37;;;;;;;;;;;;;;;9.65;59.74;101827.50;4423634;32;20030;-87
2022/03/22 07:08:02;;;;;;;;;;;;;;;9.69;59.73;101837.06;4422155;32;20326;-88
2022/03/22 07:10:27;;;;;;;;;;;;;;;9.85;59.75;101831.06;4410074;32;19978;-87
2022/03/22 07:12:53;;;;;;;;;;;;;;;10.25;59.77;101830.37;4422119;32;25043;-87
2022/03/22 07:15:23;;;;;;;;;;;;;;;10.38;59.77;101826.94;4408310;32;20030;-89
2022/03/22 07:17:52;;;;;;;;;;;;;;;10.61;59.79;101830.44;4409221;32;20005;-92
2022/03/22 07:20:37;;;;;;;;;;;;;;;;;;;;;
2022/03/22 07:23:11;;;;;;;;;;;;;;;11.14;59.82;101826.97;4422910;32;35502;-94
2022/03/22 07:25:58;;;;;;;;;;;;;;;11.26;59.83;101820.88;4425100;32;20001;-93
2022/03/22 07:28:24;;;;;;;;;;;;;;;11.42;59.83;101817.38;4424007;32;19981;-90
2022/03/22 07:30:49;;;;;;;;;;;;;;;11.68;59.85;101815.53;4422518;32;20053;-90
2022/03/22 07:36:25;;;;;;;;;;;;;;;11.88;59.86;101822.47;4406959;32;19991;-88
2022/03/22 07:38:50;;;;;;;;;;;;;;;12.37;59.89;101822.19;4422693;32;20349;-88
2022/03/22 07:41:15;;;;;;;;;;;;;;;12.52;59.90;101816.84;4423220;32;20085;-89
2022/03/22 07:43:41;;;;;;;;;;;;;;;12.74;59.91;101813.22;4421406;32;20075;-93
2022/03/22 07:46:07;;;;;;;;;;;;;;;12.99;59.92;101819.09;4423695;32;20029;-93
2022/03/22 07:48:32;;;;;;;;;;;;;;;13.23;59.93;101812.78;4412735;32;20271;-93
2022/03/22 07:53:44;;;;;;;;;;;;;;;13.51;59.96;101806.41;4423295;32;20267;-88
2022/03/22 07:56:09;;;;;;;;;;;;;;;13.51;59.96;101819.50;4421984;32;20390;-89
2022/03/22 07:58:35;;;;;;;;;;;;;;;13.59;59.96;101811.53;4423413;32;20012;-88
2022/03/22 08:01:00;;;;;;;;;;;;;;;13.72;59.97;101814.88;4423393;32;20002;-89
2022/03/22 08:03:26;;;;;;;;;;;;;;;13.84;59.97;101806.87;4423321;32;20040;-88
2022/03/22 08:05:52;;;;;;;;;;;;;;;13.99;59.98;101805.84;4422113;32;20001;-86
2022/03/22 08:08:17;;;;;;;;;;;;;;;14.16;60.00;101806.44;4423340;32;20010;-88
2022/03/22 08:10:44;;;;;;;;;;;;;;;14.10;59.99;101809.16;4422173;32;19981;-88
2022/03/22 08:13:09;;;;;;;;;;;;;;;14.30;59.99;101801.88;4422186;32;19988;-89
2022/03/22 08:15:35;;;;;;;;;;;;;;;14.53;60.01;101800.72;4422082;32;19978;-89
2022/03/22 08:18:00;;;;;;;;;;;;;;;14.57;60.01;101805.00;4409238;32;20025;-89
2022/03/22 08:20:30;;;;;;;;;;;;;;;14.65;60.02;101801.34;4421928;32;20010;-89
2022/03/22 08:22:59;;;;;;;;;;;;;;;14.63;60.01;101800.53;4423271;32;20315;-88
2022/03/22 08:25:28;;;;;;;;;;;;;;;14.86;60.03;101794.91;4422042;32;20008;-89
2022/03/22 08:27:53;;;;;;;;;;;;;;;14.99;60.03;101800.81;4421986;32;20051;-89
2022/03/22 08:30:21;;;;;;;;;;;;;;;14.97;60.03;101790.34;4421954;32;19975;-89
2022/03/22 08:32:47;;;;;;;;;;;;;;;15.07;60.03;101782.31;4421821;32;20374;-89
2022/03/22 08:35:12;;;;;;;;;;;;;;;15.14;60.04;101789.16;4421881;32;19998;-89
2022/03/22 08:37:38;;;;;;;;;;;;;;;15.30;60.05;101788.00;4421835;32;19986;-89
2022/03/22 08:40:03;;;;;;;;;;;;;;;15.43;60.05;101789.50;4423179;32;19982;-89
2022/03/22 08:42:28;;;;;;;;;;;;;;;15.63;60.07;101782.13;4423114;32;20327;-87
2022/03/22 08:44:54;;;;;;;;;;;;;;;15.74;60.07;101784.53;4408418;32;22345;-89
2022/03/22 08:47:19;;;;;;;;;;;;;;;15.65;60.07;101784.72;4422884;32;19989;-89
2022/03/22 08:49:44;;;;;;;;;;;;;;;15.94;60.09;101776.22;4422968;32;19990;-89
2022/03/22 08:52:10;;;;;;;;;;;;;;;15.99;60.08;101779.59;4421502;32;20042;-89
2022/03/22 08:54:35;;;;;;;;;;;;;;;16.14;60.09;101767.91;4421402;32;20005;-87
2022/03/22 08:57:01;;;;;;;;;;;;;;;16.42;60.11;101773.38;4422919;32;19988;-89
2022/03/22 08:59:26;;;;;;;;;;;;;;;16.35;60.11;101763.91;4421546;32;20338;-84
2022/03/22 09:01:51;;;;;;;;;;;;;;;16.45;60.11;101762.78;4408707;32;19981;-84
2022/03/22 09:07:23;;;;;;;;;;;;;;;16.63;60.12;101764.97;4423313;32;20666;-94
2022/03/22 09:09:48;;;;;;;;;;;;;;;16.56;60.12;101760.72;4424573;32;21033;-95
2022/03/22 09:12:13;;;;;;;;;;;;;;;16.65;60.13;101765.78;4410727;32;19981;-94
2022/03/22 09:15:21;;;;;;;;;;;;;;;;;;;;;
2022/03/22 09:20:49;;;;;;;;;;;;;;;16.98;60.14;101755.31;4424046;32;20325;-89
2022/03/22 09:23:15;;;;;;;;;;;;;;;17.00;60.15;101750.88;4409270;32;19974;-85
2022/03/22 09:25:40;;;;;;;;;;;;;;;17.02;60.15;101744.66;4422033;32;23917;-84
2022/03/22 09:28:06;;;;;;;;;;;;;;;17.34;60.16;101738.53;4422580;32;20022;-84
2022/03/22 09:30:31;;;;;;;;;;;;;;;17.34;60.17;101738.53;4422519;32;19977;-84
2022/03/22 09:32:57;;;;;;;;;;;;;;;17.36;60.16;101738.50;4395562;32;20026;-86
2022/03/22 09:35:23;;;;;;;;;;;;;;;17.48;60.18;101733.72;4422529;32;19975;-86
2022/03/22 09:37:48;;;;;;;;;;;;;;;17.41;60.17;101731.31;4422630;32;20029;-88
2022/03/22 09:40:14;;;;;;;;;;;;;;;17.72;60.18;101726.91;4408855;32;20021;-88
2022/03/22 09:42:42;;;;;;;;;;;;;;;17.86;60.19;101726.50;4408698;32;19981;-89
2022/03/22 09:45:10;;;;;;;;;;;;;;;18.14;60.21;101721.22;4409119;32;19982;-89
2022/03/22 09:47:36;;;;;;;;;;;;;;;18.18;60.21;101717.56;4408775;32;20008;-89
2022/03/22 09:50:02;;;;;;;;;;;;;;;18.04;60.20;101720.66;4408465;32;19974;-88
2022/03/22 09:52:27;;;;;;;;;;;;;;;18.22;60.22;101721.84;4408219;32;19974;-89
2022/03/22 09:54:52;;;;;;;;;;;;;;;18.39;60.23;101716.00;4408171;32;20278;-88
2022/03/22 09:57:18;;;;;;;;;;;;;;;18.41;60.22;101715.03;4408173;32;20304;-89
2022/03/22 09:59:43;;;;;;;;;;;;;;;18.40;60.22;101715.09;4408282;32;20005;-89
2022/03/22 10:02:10;;;;;;;;;;;;;;;18.46;60.23;101707.00;4408414;32;20303;-89
2022/03/22 10:04:44;;;;;;;;;;;;;;;18.40;60.22;101705.41;4408983;32;19978;-89
2022/03/22 10:07:19;;;;;;;;;;;;;;;18.55;60.23;101700.53;4423665;32;20004;-89
2022/03/22 10:09:50;;;;;;;;;;;;;;;18.50;60.22;101702.47;4410628;32;20338;-89
2022/03/22 10:12:24;;;;;;;;;;;;;;;18.74;60.24;101706.09;4410843;32;19989;-90
2022/03/22 10:14:49;;;;;;;;;;;;;;;18.72;60.24;101702.62;4410977;32;20039;-89
2022/03/22 10:17:15;;;;;;;;;;;;;;;18.80;60.24;101698.81;4410841;32;20049;-89
2022/03/22 10:19:42;;;;;;;;;;;;;;;18.97;60.25;101696.44;4410565;32;19986;-91
2022/03/22 10:22:10;;;;;;;;;;;;;;;19.13;60.26;101687.94;4410239;32;19981;-89
2022/03/22 10:24:48;;;;;;;;;;;;;;;19.04;60.25;101693.56;4410293;32;20322;-86
2022/03/22 10:27:32;;;;;;;;;;;;;;;19.03;60.26;101687.44;4424186;32;19981;-86
2022/03/22 10:29:58;;;;;;;;;;;;;;;19.27;60.27;101683.03;4410159;32;19993;-86
2022/03/22 10:32:33;;;;;;;;;;;;;;;19.61;60.29;101680.84;4423954;32;19966;-86
2022/03/22 10:35:11;;;;;;;;;;;;;;;19.85;60.30;101686.09;4423997;32;20003;-86
2022/03/22 10:37:37;;;;;;;;;;;;;;;20.04;60.31;101683.56;4423942;32;19986;-86
2022/03/22 10:40:02;;;;;;;;;;;;;;;20.07;60.31;101675.50;4409848;32;19977;-85
2022/03/22 10:42:28;;;;;;;;;;;;;;;20.31;60.33;101663.06;4409861;32;19978;-87
2022/03/22 10:44:57;;;;;;;;;;;;;;;20.43;60.33;101662.59;4409798;32;19994;-85
2022/03/22 10:47:26;;;;;;;;;;;;;;;20.60;60.33;101657.44;4397235;32;20015;-86
2022/03/22 10:50:02;;;;;;;;;;;;;;;20.76;60.35;101655.81;4424030;32;19990;-86
2022/03/22 10:52:29;;;;;;;;;;;;;;;20.80;60.35;101652.09;4423806;32;19971;-85
2022/03/22 10:54:55;;;;;;;;;;;;;;;20.65;60.34;101651.94;4424014;32;19978;-86
2022/03/22 10:57:28;;;;;;;;;;;;;;;20.73;60.34;101653.31;4409895;32;20012;-87
2022/03/22 10:59:55;;;;;;;;;;;;;;;20.84;60.36;101643.13;4409777;32;19985;-86
2022/03/22 11:02:21;;;;;;;;;;;;;;;20.73;60.35;101645.38;4409789;32;20040;-86
2022/03/22 11:04:46;;;;;;;;;;;;;;;20.76;60.35;101645.25;4409861;32;20012;-84
2022/03/22 11:07:11;;;;;;;;;;;;;;;20.92;60.36;101636.63;4397349;32;19989;-84
2022/03/22 11:09:37;;;;;;;;;;;;;;;20.98;60.36;101629.25;4423888;32;20008;-86
2022/03/22 11:12:02;;;;;;;;;;;;;;;21.15;60.37;101629.34;4409942;32;19996;-85
2022/03/22 11:14:28;;;;;;;;;;;;;;;21.37;60.38;101625.75;4410109;32;20001;-85
2022/03/22 11:16:53;;;;;;;;;;;;;;;21.50;60.39;101621.56;4410239;32;19998;-85
2022/03/22 11:19:18;;;;;;;;;;;;;;;21.41;60.38;101614.06;4410061;32;20076;-84
2022/03/22 11:21:44;;;;;;;;;;;;;;;21.22;60.38;101611.38;4397132;32;20037;-85
2022/03/22 11:24:10;;;;;;;;;;;;;;;21.20;60.37;101610.59;4409589;32;20037;-84
2022/03/22 11:26:42;;;;;;;;;;;;;;;21.18;60.37;101612.47;4409988;32;20353;-84
2022/03/22 11:29:12;;;;;;;;;;;;;;;21.30;60.38;101603.13;4409978;32;20004;-84
2022/03/22 11:31:37;;;;;;;;;;;;;;;21.38;60.39;101600.97;4409900;32;20499;-84
2022/03/22 11:34:09;;;;;;;;;;;;;;;21.44;60.38;101593.56;4423721;32;19969;-84
2022/03/22 11:36:37;;;;;;;;;;;;;;;21.60;60.39;101595.50;4410181;32;19997;-85
2022/03/22 11:39:02;;;;;;;;;;;;;;;21.74;60.40;101582.41;4423587;32;19969;-83
2022/03/22 11:44:12;;;;;;;;;;;;;;;21.15;60.38;101589.63;4423632;32;20008;-89
2022/03/22 11:46:38;;;;;;;;;;;;;;;21.03;60.37;101587.53;4409736;32;19990;-89
2022/03/22 11:49:14;;;;;;;;;;;;;;;21.14;60.37;101577.31;4409808;32;19977;-90
2022/03/22 11:51:49;;;;;;;;;;;;;;;21.24;60.38;101583.06;4409933;32;19984;-89
2022/03/22 11:54:15;;;;;;;;;;;;;;;20.78;60.35;101584.28;4409560;32;20064;-88
2022/03/22 11:56:47;;;;;;;;;;;;;;;20.96;60.36;101579.97;4409176;32;20009;-88
2022/03/22 11:59:14;;;;;;;;;;;;;;;20.88;60.35;101576.81;4409435;32;20024;-88
2022/03/22 12:01:40;;;;;;;;;;;;;;;21.01;60.36;101570.88;4423914;32;19978;-90
2022/03/22 12:04:14;;;;;;;;;;;;;;;21.31;60.38;101565.13;4409167;32;19994;-87
2022/03/22 12:06:39;;;;;;;;;;;;;;;21.54;60.39;101562.22;4409426;32;20039;-87
2022/03/22 12:09:06;;;;;;;;;;;;;;;21.65;60.40;101551.94;4423357;32;20313;-87
2022/03/22 12:11:31;;;;;;;;;;;;;;;21.84;60.42;101553.66;4409428;32;20006;-87
2022/03/22 12:13:56;;;;;;;;;;;;;;;21.71;60.41;101548.09;4408820;32;21710;-86
2022/03/22 12:16:25;;;;;;;;;;;;;;;21.78;60.41;101543.38;4423469;32;20009;-86
2022/03/22 12:18:50;;;;;;;;;;;;;;;21.94;60.42;101537.19;4409421;32;19988;-87
2022/03/22 12:21:17;;;;;;;;;;;;;;;21.73;60.40;101533.84;4423084;32;20291;-86
2022/03/22 12:23:43;;;;;;;;;;;;;;;21.79;60.41;101529.19;4409376;32;20266;-91
2022/03/22 12:26:10;;;;;;;;;;;;;;;21.71;60.40;101530.41;4409268;32;20002;-89
2022/03/22 12:28:44;;;;;;;;;;;;;;;21.86;60.41;101528.78;4408900;32;19982;-86
2022/03/22 12:31:11;;;;;;;;;;;;;;;21.83;60.40;101513.03;4423083;32;20322;-88
2022/03/22 12:33:37;;;;;;;;;;;;;;;21.87;60.41;101511.09;4423003;32;19977;-88
2022/03/22 12:36:02;;;;;;;;;;;;;;;21.76;60.40;101506.31;4423156;32;20646;-87
2022/03/22 12:38:27;;;;;;;;;;;;;;;21.93;60.42;101508.97;4423090;32;19984;-86
2022/03/22 12:40:52;;;;;;;;;;;;;;;21.83;60.40;101499.78;4423005;32;20311;-89
2022/03/22 12:43:19;;;;;;;;;;;;;;;21.93;60.42;101494.87;4408889;32;20009;-87
2022/03/22 12:45:45;;;;;;;;;;;;;;;22.01;60.42;101498.84;4422761;32;19990;-85
2022/03/22 12:48:11;;;;;;;;;;;;;;;22.06;60.42;101493.34;4423009;32;20096;-89
2022/03/22 12:50:36;;;;;;;;;;;;;;;22.24;60.43;101487.06;4397604;32;20025;-87
2022/03/22 12:53:01;;;;;;;;;;;;;;;22.25;60.44;101485.28;4409487;32;20002;-87
2022/03/22 12:55:27;;;;;;;;;;;;;;;22.27;60.43;101480.75;4422760;32;19993;-90
2022/03/22 13:01:13;;;;;;;;;;;;;;;22.35;60.43;101475.88;4376132;32;20005;-92
2022/03/22 13:04:01;;;;;;;;;;;;;;;22.44;60.44;101464.75;4364247;32;21125;-92
2022/03/22 13:06:26;;;;;;;;;;;;;;;22.47;60.45;101469.88;4419951;32;19985;-87
2022/03/22 13:11:35;;;;;;;;;;;;;;;22.59;60.45;101455.09;4409680;32;20016;-85
2022/03/22 13:16:54;;;;;;;;;;;;;;;22.05;60.42;101447.41;4409721;32;20036;-85
2022/03/22 13:19:19;;;;;;;;;;;;;;;22.04;60.42;101444.81;4421613;32;20244;-85
2022/03/22 13:21:44;;;;;;;;;;;;;;;21.76;60.40;101440.06;4421657;32;20069;-88
2022/03/22 13:24:23;;;;;;;;;;;;;;;21.80;60.41;101438.97;4394721;32;20024;-88